sensor_id;sensor_type;location;lat;lon;timestamp;P1;durP1;ratioP1;P2;durP2;ratioP2
28762;SDS011;15918;51.270;6.522;2023-12-20T00:00:25;12.15;;;8.65;;
28762;SDS011;15918;51.270;6.522;2023-12-20T00:02:50;9.95;;;8.00;;
28762;SDS011;15918;51.270;6.522;2023-12-20T00:05:16;11.65;;;8.45;;
28762;SDS011;15918;51.270;6.522;2023-12-20T00:07:42;11.02;;;8.38;;
28762;SDS011;15918;51.270;6.522;2023-12-20T00:10:08;10.55;;;9.45;;
28762;SDS011;15918;51.270;6.522;2023-12-20T00:12:33;10.88;;;9.77;;
28762;SDS011;15918;51.270;6.522;2023-12-20T00:14:59;11.90;;;10.43;;
28762;SDS011;15918;51.270;6.522;2023-12-20T00:17:24;12.77;;;10.63;;
28762;SDS011;15918;51.270;6.522;2023-12-20T00:19:50;13.48;;;11.73;;
28762;SDS011;15918;51.270;6.522;2023-12-20T00:22:15;15.13;;;11.57;;
28762;SDS011;15918;51.270;6.522;2023-12-20T00:24:41;15.45;;;12.48;;
28762;SDS011;15918;51.270;6.522;2023-12-20T00:27:06;13.25;;;11.43;;
28762;SDS011;15918;51.270;6.522;2023-12-20T00:29:32;14.95;;;11.85;;
28762;SDS011;15918;51.270;6.522;2023-12-20T00:31:57;13.95;;;12.48;;
28762;SDS011;15918;51.270;6.522;2023-12-20T00:34:23;14.57;;;12.98;;
28762;SDS011;15918;51.270;6.522;2023-12-20T00:36:49;16.05;;;12.95;;
28762;SDS011;15918;51.270;6.522;2023-12-20T00:39:14;13.80;;;12.40;;
28762;SDS011;15918;51.270;6.522;2023-12-20T00:41:40;14.45;;;12.80;;
28762;SDS011;15918;51.270;6.522;2023-12-20T00:44:05;13.88;;;12.25;;
28762;SDS011;15918;51.270;6.522;2023-12-20T00:46:31;20.30;;;14.15;;
28762;SDS011;15918;51.270;6.522;2023-12-20T00:48:57;15.55;;;12.38;;
28762;SDS011;15918;51.270;6.522;2023-12-20T00:51:22;19.25;;;14.80;;
28762;SDS011;15918;51.270;6.522;2023-12-20T00:53:49;17.02;;;14.38;;
28762;SDS011;15918;51.270;6.522;2023-12-20T00:56:15;17.77;;;14.65;;
28762;SDS011;15918;51.270;6.522;2023-12-20T00:58:41;18.23;;;15.60;;
28762;SDS011;15918;51.270;6.522;2023-12-20T01:01:06;19.73;;;16.52;;
28762;SDS011;15918;51.270;6.522;2023-12-20T01:03:32;22.17;;;18.05;;
28762;SDS011;15918;51.270;6.522;2023-12-20T01:05:57;20.98;;;16.95;;
28762;SDS011;15918;51.270;6.522;2023-12-20T01:08:23;22.67;;;18.95;;
28762;SDS011;15918;51.270;6.522;2023-12-20T01:10:48;21.17;;;18.83;;
28762;SDS011;15918;51.270;6.522;2023-12-20T01:13:14;26.52;;;20.58;;
28762;SDS011;15918;51.270;6.522;2023-12-20T01:15:40;23.73;;;19.80;;
28762;SDS011;15918;51.270;6.522;2023-12-20T01:18:05;26.83;;;20.40;;
28762;SDS011;15918;51.270;6.522;2023-12-20T01:20:31;25.45;;;20.23;;
28762;SDS011;15918;51.270;6.522;2023-12-20T01:22:56;24.73;;;18.58;;
28762;SDS011;15918;51.270;6.522;2023-12-20T01:25:22;23.85;;;19.10;;
28762;SDS011;15918;51.270;6.522;2023-12-20T01:27:48;22.55;;;18.67;;
28762;SDS011;15918;51.270;6.522;2023-12-20T01:30:14;21.08;;;17.92;;
28762;SDS011;15918;51.270;6.522;2023-12-20T01:32:40;22.70;;;19.20;;
28762;SDS011;15918;51.270;6.522;2023-12-20T01:35:05;19.50;;;16.90;;
28762;SDS011;15918;51.270;6.522;2023-12-20T01:37:31;20.58;;;16.95;;
28762;SDS011;15918;51.270;6.522;2023-12-20T01:39:57;24.60;;;16.42;;
28762;SDS011;15918;51.270;6.522;2023-12-20T01:42:23;28.67;;;16.08;;
28762;SDS011;15918;51.270;6.522;2023-12-20T01:44:49;17.80;;;14.40;;
28762;SDS011;15918;51.270;6.522;2023-12-20T01:47:15;23.50;;;16.33;;
28762;SDS011;15918;51.270;6.522;2023-12-20T01:49:40;21.02;;;15.32;;
28762;SDS011;15918;51.270;6.522;2023-12-20T01:52:06;23.55;;;14.40;;
28762;SDS011;15918;51.270;6.522;2023-12-20T01:54:33;20.33;;;12.75;;
28762;SDS011;15918;51.270;6.522;2023-12-20T01:57:00;23.73;;;13.57;;
28762;SDS011;15918;51.270;6.522;2023-12-20T01:59:26;19.75;;;12.13;;
28762;SDS011;15918;51.270;6.522;2023-12-20T02:01:53;18.33;;;11.95;;
28762;SDS011;15918;51.270;6.522;2023-12-20T02:04:19;18.60;;;12.60;;
28762;SDS011;15918;51.270;6.522;2023-12-20T02:06:44;19.52;;;11.32;;
28762;SDS011;15918;51.270;6.522;2023-12-20T02:09:11;23.77;;;11.23;;
28762;SDS011;15918;51.270;6.522;2023-12-20T02:11:37;16.70;;;10.98;;
28762;SDS011;15918;51.270;6.522;2023-12-20T02:14:03;17.58;;;10.38;;
28762;SDS011;15918;51.270;6.522;2023-12-20T02:16:29;23.38;;;10.38;;
28762;SDS011;15918;51.270;6.522;2023-12-20T02:18:55;17.55;;;8.77;;
28762;SDS011;15918;51.270;6.522;2023-12-20T02:21:33;25.15;;;9.73;;
28762;SDS011;15918;51.270;6.522;2023-12-20T02:24:01;21.65;;;9.18;;
28762;SDS011;15918;51.270;6.522;2023-12-20T02:26:27;21.35;;;8.98;;
28762;SDS011;15918;51.270;6.522;2023-12-20T02:28:53;16.90;;;8.38;;
28762;SDS011;15918;51.270;6.522;2023-12-20T02:31:23;17.50;;;7.53;;
28762;SDS011;15918;51.270;6.522;2023-12-20T02:33:48;18.73;;;7.20;;
28762;SDS011;15918;51.270;6.522;2023-12-20T02:36:14;14.10;;;6.88;;
28762;SDS011;15918;51.270;6.522;2023-12-20T02:38:40;19.80;;;6.78;;
28762;SDS011;15918;51.270;6.522;2023-12-20T02:41:05;16.75;;;6.28;;
28762;SDS011;15918;51.270;6.522;2023-12-20T02:43:31;22.42;;;7.28;;
28762;SDS011;15918;51.270;6.522;2023-12-20T02:45:56;15.65;;;6.07;;
28762;SDS011;15918;51.270;6.522;2023-12-20T02:48:22;19.27;;;6.53;;
28762;SDS011;15918;51.270;6.522;2023-12-20T02:50:47;26.17;;;6.30;;
28762;SDS011;15918;51.270;6.522;2023-12-20T02:53:14;17.58;;;6.03;;
28762;SDS011;15918;51.270;6.522;2023-12-20T02:55:39;19.58;;;5.32;;
28762;SDS011;15918;51.270;6.522;2023-12-20T02:58:05;25.05;;;7.22;;
28762;SDS011;15918;51.270;6.522;2023-12-20T03:00:31;18.08;;;5.28;;
28762;SDS011;15918;51.270;6.522;2023-12-20T03:02:56;16.63;;;4.85;;
28762;SDS011;15918;51.270;6.522;2023-12-20T03:05:22;19.77;;;6.50;;
28762;SDS011;15918;51.270;6.522;2023-12-20T03:07:47;19.10;;;6.07;;
28762;SDS011;15918;51.270;6.522;2023-12-20T03:10:13;16.98;;;6.15;;
28762;SDS011;15918;51.270;6.522;2023-12-20T03:12:38;19.80;;;6.22;;
28762;SDS011;15918;51.270;6.522;2023-12-20T03:15:04;20.42;;;5.28;;
28762;SDS011;15918;51.270;6.522;2023-12-20T03:17:30;18.33;;;4.85;;
28762;SDS011;15918;51.270;6.522;2023-12-20T03:19:56;19.98;;;5.47;;
28762;SDS011;15918;51.270;6.522;2023-12-20T03:22:21;19.65;;;5.57;;
28762;SDS011;15918;51.270;6.522;2023-12-20T03:24:47;16.75;;;5.20;;
28762;SDS011;15918;51.270;6.522;2023-12-20T03:27:12;20.10;;;5.47;;
28762;SDS011;15918;51.270;6.522;2023-12-20T03:29:38;19.55;;;5.65;;
28762;SDS011;15918;51.270;6.522;2023-12-20T03:32:03;18.95;;;6.60;;
28762;SDS011;15918;51.270;6.522;2023-12-20T03:34:29;20.08;;;5.55;;
28762;SDS011;15918;51.270;6.522;2023-12-20T03:36:55;20.83;;;5.95;;
28762;SDS011;15918;51.270;6.522;2023-12-20T03:39:21;22.25;;;5.75;;
28762;SDS011;15918;51.270;6.522;2023-12-20T03:41:46;18.05;;;6.03;;
28762;SDS011;15918;51.270;6.522;2023-12-20T03:44:12;22.73;;;6.32;;
28762;SDS011;15918;51.270;6.522;2023-12-20T03:46:37;19.08;;;6.70;;
28762;SDS011;15918;51.270;6.522;2023-12-20T03:49:03;17.23;;;5.55;;
28762;SDS011;15918;51.270;6.522;2023-12-20T03:51:28;20.25;;;6.78;;
28762;SDS011;15918;51.270;6.522;2023-12-20T03:53:54;16.13;;;5.93;;
28762;SDS011;15918;51.270;6.522;2023-12-20T03:56:19;23.30;;;6.53;;
28762;SDS011;15918;51.270;6.522;2023-12-20T03:58:45;16.27;;;6.60;;
28762;SDS011;15918;51.270;6.522;2023-12-20T04:01:10;20.88;;;6.68;;
28762;SDS011;15918;51.270;6.522;2023-12-20T04:03:38;22.58;;;7.50;;
28762;SDS011;15918;51.270;6.522;2023-12-20T04:06:04;21.45;;;6.63;;
28762;SDS011;15918;51.270;6.522;2023-12-20T04:08:29;20.80;;;7.35;;
28762;SDS011;15918;51.270;6.522;2023-12-20T04:10:55;16.00;;;6.75;;
28762;SDS011;15918;51.270;6.522;2023-12-20T04:13:20;17.48;;;7.32;;
28762;SDS011;15918;51.270;6.522;2023-12-20T04:15:46;19.17;;;7.20;;
28762;SDS011;15918;51.270;6.522;2023-12-20T04:18:12;20.70;;;7.40;;
28762;SDS011;15918;51.270;6.522;2023-12-20T04:20:37;24.55;;;8.70;;
28762;SDS011;15918;51.270;6.522;2023-12-20T04:23:03;19.25;;;8.35;;
28762;SDS011;15918;51.270;6.522;2023-12-20T04:25:28;21.75;;;9.43;;
28762;SDS011;15918;51.270;6.522;2023-12-20T04:27:54;23.83;;;9.32;;
28762;SDS011;15918;51.270;6.522;2023-12-20T04:30:19;19.50;;;8.48;;
28762;SDS011;15918;51.270;6.522;2023-12-20T04:32:45;25.48;;;8.98;;
28762;SDS011;15918;51.270;6.522;2023-12-20T04:35:10;22.30;;;8.95;;
28762;SDS011;15918;51.270;6.522;2023-12-20T04:37:36;22.15;;;9.43;;
28762;SDS011;15918;51.270;6.522;2023-12-20T04:40:02;26.20;;;9.13;;
28762;SDS011;15918;51.270;6.522;2023-12-20T04:42:28;21.67;;;9.40;;
28762;SDS011;15918;51.270;6.522;2023-12-20T04:44:53;30.15;;;10.65;;
28762;SDS011;15918;51.270;6.522;2023-12-20T04:47:19;20.45;;;8.45;;
28762;SDS011;15918;51.270;6.522;2023-12-20T04:49:44;24.60;;;10.10;;
28762;SDS011;15918;51.270;6.522;2023-12-20T04:52:10;26.75;;;10.25;;
28762;SDS011;15918;51.270;6.522;2023-12-20T04:54:35;23.13;;;9.32;;
28762;SDS011;15918;51.270;6.522;2023-12-20T04:57:01;18.75;;;9.95;;
28762;SDS011;15918;51.270;6.522;2023-12-20T04:59:27;22.42;;;9.80;;
28762;SDS011;15918;51.270;6.522;2023-12-20T05:01:53;22.65;;;9.32;;
28762;SDS011;15918;51.270;6.522;2023-12-20T05:04:18;25.83;;;9.25;;
28762;SDS011;15918;51.270;6.522;2023-12-20T05:06:44;19.95;;;8.65;;
28762;SDS011;15918;51.270;6.522;2023-12-20T05:09:09;29.30;;;10.75;;
28762;SDS011;15918;51.270;6.522;2023-12-20T05:11:35;21.48;;;9.63;;
28762;SDS011;15918;51.270;6.522;2023-12-20T05:14:00;25.27;;;9.32;;
28762;SDS011;15918;51.270;6.522;2023-12-20T05:16:26;26.58;;;9.32;;
28762;SDS011;15918;51.270;6.522;2023-12-20T05:18:51;24.25;;;9.82;;
28762;SDS011;15918;51.270;6.522;2023-12-20T05:21:17;24.75;;;9.60;;
28762;SDS011;15918;51.270;6.522;2023-12-20T05:23:43;22.23;;;9.50;;
28762;SDS011;15918;51.270;6.522;2023-12-20T05:26:09;23.48;;;9.07;;
28762;SDS011;15918;51.270;6.522;2023-12-20T05:28:34;18.95;;;9.48;;
28762;SDS011;15918;51.270;6.522;2023-12-20T05:31:00;19.98;;;8.70;;
28762;SDS011;15918;51.270;6.522;2023-12-20T05:33:25;26.33;;;10.00;;
28762;SDS011;15918;51.270;6.522;2023-12-20T05:35:51;33.88;;;9.50;;
28762;SDS011;15918;51.270;6.522;2023-12-20T05:38:17;25.48;;;8.88;;
28762;SDS011;15918;51.270;6.522;2023-12-20T05:40:42;19.75;;;8.65;;
28762;SDS011;15918;51.270;6.522;2023-12-20T05:43:08;24.52;;;8.55;;
28762;SDS011;15918;51.270;6.522;2023-12-20T05:45:33;21.38;;;8.63;;
28762;SDS011;15918;51.270;6.522;2023-12-20T05:47:59;19.73;;;8.32;;
28762;SDS011;15918;51.270;6.522;2023-12-20T05:50:25;24.95;;;8.82;;
28762;SDS011;15918;51.270;6.522;2023-12-20T05:52:50;20.35;;;8.43;;
28762;SDS011;15918;51.270;6.522;2023-12-20T05:55:16;25.20;;;9.43;;
28762;SDS011;15918;51.270;6.522;2023-12-20T05:57:41;22.30;;;9.65;;
28762;SDS011;15918;51.270;6.522;2023-12-20T06:00:08;28.23;;;9.65;;
28762;SDS011;15918;51.270;6.522;2023-12-20T06:02:34;27.83;;;8.98;;
28762;SDS011;15918;51.270;6.522;2023-12-20T06:05:02;22.33;;;8.40;;
28762;SDS011;15918;51.270;6.522;2023-12-20T06:07:29;23.67;;;8.07;;
28762;SDS011;15918;51.270;6.522;2023-12-20T06:09:54;20.25;;;8.52;;
28762;SDS011;15918;51.270;6.522;2023-12-20T06:12:20;21.52;;;8.30;;
28762;SDS011;15918;51.270;6.522;2023-12-20T06:14:45;28.35;;;8.50;;
28762;SDS011;15918;51.270;6.522;2023-12-20T06:17:11;22.20;;;9.07;;
28762;SDS011;15918;51.270;6.522;2023-12-20T06:19:36;25.15;;;9.43;;
28762;SDS011;15918;51.270;6.522;2023-12-20T06:22:02;28.58;;;9.63;;
28762;SDS011;15918;51.270;6.522;2023-12-20T06:24:28;27.20;;;9.25;;
28762;SDS011;15918;51.270;6.522;2023-12-20T06:26:54;25.25;;;9.20;;
28762;SDS011;15918;51.270;6.522;2023-12-20T06:29:20;24.02;;;9.65;;
28762;SDS011;15918;51.270;6.522;2023-12-20T06:31:46;25.20;;;8.20;;
28762;SDS011;15918;51.270;6.522;2023-12-20T06:34:11;25.85;;;8.98;;
28762;SDS011;15918;51.270;6.522;2023-12-20T06:36:37;26.10;;;9.77;;
28762;SDS011;15918;51.270;6.522;2023-12-20T06:39:03;29.27;;;9.38;;
28762;SDS011;15918;51.270;6.522;2023-12-20T06:41:29;32.55;;;9.57;;
28762;SDS011;15918;51.270;6.522;2023-12-20T06:43:55;22.52;;;8.57;;
28762;SDS011;15918;51.270;6.522;2023-12-20T06:46:20;27.40;;;8.98;;
28762;SDS011;15918;51.270;6.522;2023-12-20T06:48:46;26.65;;;9.25;;
28762;SDS011;15918;51.270;6.522;2023-12-20T06:51:14;27.20;;;9.00;;
28762;SDS011;15918;51.270;6.522;2023-12-20T06:53:40;20.45;;;9.52;;
28762;SDS011;15918;51.270;6.522;2023-12-20T06:56:05;24.52;;;9.68;;
28762;SDS011;15918;51.270;6.522;2023-12-20T06:58:32;20.83;;;8.63;;
28762;SDS011;15918;51.270;6.522;2023-12-20T07:00:58;27.48;;;9.25;;
28762;SDS011;15918;51.270;6.522;2023-12-20T07:03:23;27.00;;;8.63;;
28762;SDS011;15918;51.270;6.522;2023-12-20T07:05:49;27.00;;;10.07;;
28762;SDS011;15918;51.270;6.522;2023-12-20T07:08:14;23.25;;;9.85;;
28762;SDS011;15918;51.270;6.522;2023-12-20T07:10:40;24.23;;;9.95;;
28762;SDS011;15918;51.270;6.522;2023-12-20T07:13:06;24.33;;;9.52;;
28762;SDS011;15918;51.270;6.522;2023-12-20T07:15:32;22.92;;;9.30;;
28762;SDS011;15918;51.270;6.522;2023-12-20T07:17:58;26.20;;;10.18;;
28762;SDS011;15918;51.270;6.522;2023-12-20T07:20:25;22.70;;;9.23;;
28762;SDS011;15918;51.270;6.522;2023-12-20T07:22:51;23.73;;;9.57;;
28762;SDS011;15918;51.270;6.522;2023-12-20T07:25:16;26.23;;;9.68;;
28762;SDS011;15918;51.270;6.522;2023-12-20T07:27:42;26.70;;;9.63;;
28762;SDS011;15918;51.270;6.522;2023-12-20T07:30:08;29.13;;;9.85;;
28762;SDS011;15918;51.270;6.522;2023-12-20T07:32:34;26.77;;;11.25;;
28762;SDS011;15918;51.270;6.522;2023-12-20T07:35:00;29.55;;;14.48;;
28762;SDS011;15918;51.270;6.522;2023-12-20T07:37:25;35.80;;;17.35;;
28762;SDS011;15918;51.270;6.522;2023-12-20T07:39:51;37.85;;;17.80;;
28762;SDS011;15918;51.270;6.522;2023-12-20T07:42:16;35.08;;;16.75;;
28762;SDS011;15918;51.270;6.522;2023-12-20T07:44:42;27.55;;;14.43;;
28762;SDS011;15918;51.270;6.522;2023-12-20T07:47:07;29.13;;;14.48;;
28762;SDS011;15918;51.270;6.522;2023-12-20T07:49:33;28.70;;;13.55;;
28762;SDS011;15918;51.270;6.522;2023-12-20T07:51:58;25.42;;;12.27;;
28762;SDS011;15918;51.270;6.522;2023-12-20T07:54:24;29.20;;;11.88;;
28762;SDS011;15918;51.270;6.522;2023-12-20T07:56:50;26.48;;;11.60;;
28762;SDS011;15918;51.270;6.522;2023-12-20T07:59:15;27.08;;;10.70;;
28762;SDS011;15918;51.270;6.522;2023-12-20T08:01:41;32.55;;;10.52;;
28762;SDS011;15918;51.270;6.522;2023-12-20T08:04:07;24.27;;;10.07;;
28762;SDS011;15918;51.270;6.522;2023-12-20T08:06:33;27.38;;;10.00;;
28762;SDS011;15918;51.270;6.522;2023-12-20T08:08:59;26.30;;;10.63;;
28762;SDS011;15918;51.270;6.522;2023-12-20T08:11:24;21.75;;;9.95;;
28762;SDS011;15918;51.270;6.522;2023-12-20T08:13:50;24.58;;;9.77;;
28762;SDS011;15918;51.270;6.522;2023-12-20T08:16:16;26.58;;;10.73;;
28762;SDS011;15918;51.270;6.522;2023-12-20T08:18:42;21.77;;;9.10;;
28762;SDS011;15918;51.270;6.522;2023-12-20T08:21:08;27.17;;;9.80;;
28762;SDS011;15918;51.270;6.522;2023-12-20T08:23:34;24.55;;;10.40;;
28762;SDS011;15918;51.270;6.522;2023-12-20T08:26:06;28.45;;;9.77;;
28762;SDS011;15918;51.270;6.522;2023-12-20T08:28:32;33.20;;;12.07;;
28762;SDS011;15918;51.270;6.522;2023-12-20T08:30:58;29.73;;;11.80;;
28762;SDS011;15918;51.270;6.522;2023-12-20T08:33:24;26.17;;;10.95;;
28762;SDS011;15918;51.270;6.522;2023-12-20T08:35:49;25.52;;;10.98;;
28762;SDS011;15918;51.270;6.522;2023-12-20T08:38:15;28.95;;;12.07;;
28762;SDS011;15918;51.270;6.522;2023-12-20T08:40:41;35.80;;;14.38;;
28762;SDS011;15918;51.270;6.522;2023-12-20T08:43:07;33.15;;;14.15;;
28762;SDS011;15918;51.270;6.522;2023-12-20T08:45:33;36.40;;;14.88;;
28762;SDS011;15918;51.270;6.522;2023-12-20T08:47:58;36.65;;;14.90;;
28762;SDS011;15918;51.270;6.522;2023-12-20T08:50:25;30.77;;;14.90;;
28762;SDS011;15918;51.270;6.522;2023-12-20T08:52:50;31.65;;;13.75;;
28762;SDS011;15918;51.270;6.522;2023-12-20T08:55:16;33.08;;;13.93;;
28762;SDS011;15918;51.270;6.522;2023-12-20T08:57:43;30.38;;;13.05;;
28762;SDS011;15918;51.270;6.522;2023-12-20T09:00:09;29.15;;;12.18;;
28762;SDS011;15918;51.270;6.522;2023-12-20T09:02:35;28.50;;;11.68;;
28762;SDS011;15918;51.270;6.522;2023-12-20T09:05:01;24.25;;;9.93;;
28762;SDS011;15918;51.270;6.522;2023-12-20T09:07:27;28.30;;;10.30;;
28762;SDS011;15918;51.270;6.522;2023-12-20T09:09:55;26.00;;;9.25;;
28762;SDS011;15918;51.270;6.522;2023-12-20T09:12:21;28.35;;;8.48;;
28762;SDS011;15918;51.270;6.522;2023-12-20T09:14:47;25.25;;;8.70;;
28762;SDS011;15918;51.270;6.522;2023-12-20T09:17:13;26.27;;;8.00;;
28762;SDS011;15918;51.270;6.522;2023-12-20T09:19:38;29.48;;;8.77;;
28762;SDS011;15918;51.270;6.522;2023-12-20T09:22:04;22.23;;;7.25;;
28762;SDS011;15918;51.270;6.522;2023-12-20T09:24:30;19.17;;;7.65;;
28762;SDS011;15918;51.270;6.522;2023-12-20T09:26:56;22.40;;;7.93;;
28762;SDS011;15918;51.270;6.522;2023-12-20T09:29:22;22.23;;;7.10;;
28762;SDS011;15918;51.270;6.522;2023-12-20T09:31:48;24.15;;;8.25;;
28762;SDS011;15918;51.270;6.522;2023-12-20T09:34:15;22.10;;;7.38;;
28762;SDS011;15918;51.270;6.522;2023-12-20T09:36:42;21.67;;;7.50;;
28762;SDS011;15918;51.270;6.522;2023-12-20T09:39:12;23.38;;;7.40;;
28762;SDS011;15918;51.270;6.522;2023-12-20T09:41:40;24.95;;;7.90;;
28762;SDS011;15918;51.270;6.522;2023-12-20T09:44:11;24.25;;;7.43;;
28762;SDS011;15918;51.270;6.522;2023-12-20T09:46:41;21.00;;;7.65;;
28762;SDS011;15918;51.270;6.522;2023-12-20T09:49:09;25.92;;;8.05;;
28762;SDS011;15918;51.270;6.522;2023-12-20T09:51:35;27.35;;;8.43;;
28762;SDS011;15918;51.270;6.522;2023-12-20T09:54:03;25.15;;;7.40;;
28762;SDS011;15918;51.270;6.522;2023-12-20T09:56:29;24.75;;;7.50;;
28762;SDS011;15918;51.270;6.522;2023-12-20T09:58:55;24.55;;;7.25;;
28762;SDS011;15918;51.270;6.522;2023-12-20T10:01:21;23.75;;;7.30;;
28762;SDS011;15918;51.270;6.522;2023-12-20T10:03:48;27.73;;;8.00;;
28762;SDS011;15918;51.270;6.522;2023-12-20T10:06:16;22.63;;;6.70;;
28762;SDS011;15918;51.270;6.522;2023-12-20T10:08:42;26.98;;;7.57;;
28762;SDS011;15918;51.270;6.522;2023-12-20T10:11:07;22.45;;;7.15;;
28762;SDS011;15918;51.270;6.522;2023-12-20T10:13:33;22.20;;;7.30;;
28762;SDS011;15918;51.270;6.522;2023-12-20T10:15:59;21.58;;;6.78;;
28762;SDS011;15918;51.270;6.522;2023-12-20T10:18:25;21.27;;;7.00;;
28762;SDS011;15918;51.270;6.522;2023-12-20T10:20:53;20.25;;;7.10;;
28762;SDS011;15918;51.270;6.522;2023-12-20T10:23:19;21.80;;;7.30;;
28762;SDS011;15918;51.270;6.522;2023-12-20T10:25:52;26.13;;;7.40;;
28762;SDS011;15918;51.270;6.522;2023-12-20T10:28:22;29.63;;;7.80;;
28762;SDS011;15918;51.270;6.522;2023-12-20T10:30:50;24.15;;;7.43;;
28762;SDS011;15918;51.270;6.522;2023-12-20T10:33:25;26.63;;;7.00;;
28762;SDS011;15918;51.270;6.522;2023-12-20T10:35:52;24.50;;;7.68;;
28762;SDS011;15918;51.270;6.522;2023-12-20T10:38:18;24.30;;;7.25;;
28762;SDS011;15918;51.270;6.522;2023-12-20T10:40:45;21.80;;;7.07;;
28762;SDS011;15918;51.270;6.522;2023-12-20T10:43:11;19.90;;;7.13;;
28762;SDS011;15918;51.270;6.522;2023-12-20T10:45:37;24.60;;;7.15;;
28762;SDS011;15918;51.270;6.522;2023-12-20T10:48:03;25.10;;;7.40;;
28762;SDS011;15918;51.270;6.522;2023-12-20T10:50:30;26.27;;;7.40;;
28762;SDS011;15918;51.270;6.522;2023-12-20T10:52:56;19.75;;;6.30;;
28762;SDS011;15918;51.270;6.522;2023-12-20T10:55:23;23.63;;;8.15;;
28762;SDS011;15918;51.270;6.522;2023-12-20T10:57:52;29.15;;;7.88;;
28762;SDS011;15918;51.270;6.522;2023-12-20T11:00:32;24.20;;;7.35;;
28762;SDS011;15918;51.270;6.522;2023-12-20T11:03:00;28.02;;;8.68;;
28762;SDS011;15918;51.270;6.522;2023-12-20T11:05:33;25.95;;;7.32;;
28762;SDS011;15918;51.270;6.522;2023-12-20T11:10:42;21.02;;;7.25;;
28762;SDS011;15918;51.270;6.522;2023-12-20T11:13:18;30.85;;;11.95;;
28762;SDS011;15918;51.270;6.522;2023-12-20T11:15:51;27.95;;;9.48;;
28762;SDS011;15918;51.270;6.522;2023-12-20T11:18:17;22.10;;;8.63;;
28762;SDS011;15918;51.270;6.522;2023-12-20T11:20:43;22.45;;;10.20;;
28762;SDS011;15918;51.270;6.522;2023-12-20T11:23:09;31.20;;;11.82;;
28762;SDS011;15918;51.270;6.522;2023-12-20T11:25:54;30.65;;;13.38;;
28762;SDS011;15918;51.270;6.522;2023-12-20T11:28:24;26.48;;;10.43;;
28762;SDS011;15918;51.270;6.522;2023-12-20T11:30:51;25.20;;;8.90;;
28762;SDS011;15918;51.270;6.522;2023-12-20T11:33:21;25.95;;;8.57;;
28762;SDS011;15918;51.270;6.522;2023-12-20T11:35:48;22.98;;;7.18;;
28762;SDS011;15918;51.270;6.522;2023-12-20T11:38:14;22.80;;;7.95;;
28762;SDS011;15918;51.270;6.522;2023-12-20T11:40:41;19.83;;;6.78;;
28762;SDS011;15918;51.270;6.522;2023-12-20T11:43:07;26.25;;;8.10;;
28762;SDS011;15918;51.270;6.522;2023-12-20T11:45:33;22.98;;;6.82;;
28762;SDS011;15918;51.270;6.522;2023-12-20T11:48:02;17.48;;;6.38;;
28762;SDS011;15918;51.270;6.522;2023-12-20T11:50:28;18.55;;;6.72;;
28762;SDS011;15918;51.270;6.522;2023-12-20T11:52:55;25.27;;;7.25;;
28762;SDS011;15918;51.270;6.522;2023-12-20T11:55:21;18.90;;;6.47;;
28762;SDS011;15918;51.270;6.522;2023-12-20T11:57:48;20.75;;;7.15;;
28762;SDS011;15918;51.270;6.522;2023-12-20T12:00:15;25.10;;;7.13;;
28762;SDS011;15918;51.270;6.522;2023-12-20T12:02:41;22.80;;;7.10;;
28762;SDS011;15918;51.270;6.522;2023-12-20T12:05:07;19.17;;;7.72;;
28762;SDS011;15918;51.270;6.522;2023-12-20T12:07:33;20.80;;;6.90;;
28762;SDS011;15918;51.270;6.522;2023-12-20T12:10:00;17.10;;;7.00;;
28762;SDS011;15918;51.270;6.522;2023-12-20T12:12:25;18.13;;;7.20;;
28762;SDS011;15918;51.270;6.522;2023-12-20T12:14:52;19.17;;;7.20;;
28762;SDS011;15918;51.270;6.522;2023-12-20T12:17:19;22.75;;;7.90;;
28762;SDS011;15918;51.270;6.522;2023-12-20T12:19:45;28.83;;;8.68;;
28762;SDS011;15918;51.270;6.522;2023-12-20T12:22:11;24.05;;;7.63;;
28762;SDS011;15918;51.270;6.522;2023-12-20T12:24:39;20.55;;;7.43;;
28762;SDS011;15918;51.270;6.522;2023-12-20T12:27:06;22.00;;;6.97;;
28762;SDS011;15918;51.270;6.522;2023-12-20T12:29:32;20.08;;;6.40;;
28762;SDS011;15918;51.270;6.522;2023-12-20T12:31:58;20.88;;;7.03;;
28762;SDS011;15918;51.270;6.522;2023-12-20T12:34:26;24.13;;;8.15;;
28762;SDS011;15918;51.270;6.522;2023-12-20T12:36:53;17.33;;;6.72;;
28762;SDS011;15918;51.270;6.522;2023-12-20T12:39:18;21.45;;;6.65;;
28762;SDS011;15918;51.270;6.522;2023-12-20T12:41:44;21.58;;;7.20;;
28762;SDS011;15918;51.270;6.522;2023-12-20T12:44:10;26.15;;;7.80;;
28762;SDS011;15918;51.270;6.522;2023-12-20T12:46:35;20.13;;;7.15;;
28762;SDS011;15918;51.270;6.522;2023-12-20T12:49:01;22.80;;;7.20;;
28762;SDS011;15918;51.270;6.522;2023-12-20T12:51:27;21.52;;;7.95;;
28762;SDS011;15918;51.270;6.522;2023-12-20T12:53:53;25.17;;;8.35;;
28762;SDS011;15918;51.270;6.522;2023-12-20T12:56:18;22.92;;;8.13;;
28762;SDS011;15918;51.270;6.522;2023-12-20T12:58:44;27.50;;;9.05;;
28762;SDS011;15918;51.270;6.522;2023-12-20T13:01:10;27.48;;;8.43;;
28762;SDS011;15918;51.270;6.522;2023-12-20T13:03:35;24.35;;;8.02;;
28762;SDS011;15918;51.270;6.522;2023-12-20T13:06:01;23.98;;;8.57;;
28762;SDS011;15918;51.270;6.522;2023-12-20T13:08:27;22.48;;;8.18;;
28762;SDS011;15918;51.270;6.522;2023-12-20T13:10:53;18.92;;;8.00;;
28762;SDS011;15918;51.270;6.522;2023-12-20T13:13:20;26.95;;;8.15;;
28762;SDS011;15918;51.270;6.522;2023-12-20T13:15:46;22.50;;;8.88;;
28762;SDS011;15918;51.270;6.522;2023-12-20T13:18:16;23.92;;;7.90;;
28762;SDS011;15918;51.270;6.522;2023-12-20T13:20:43;19.90;;;7.82;;
28762;SDS011;15918;51.270;6.522;2023-12-20T13:23:08;26.17;;;8.32;;
28762;SDS011;15918;51.270;6.522;2023-12-20T13:25:34;22.42;;;8.27;;
28762;SDS011;15918;51.270;6.522;2023-12-20T13:28:00;25.20;;;9.25;;
28762;SDS011;15918;51.270;6.522;2023-12-20T13:30:25;23.48;;;8.45;;
28762;SDS011;15918;51.270;6.522;2023-12-20T13:32:51;19.77;;;7.93;;
28762;SDS011;15918;51.270;6.522;2023-12-20T13:35:17;26.10;;;8.77;;
28762;SDS011;15918;51.270;6.522;2023-12-20T13:37:42;21.33;;;8.48;;
28762;SDS011;15918;51.270;6.522;2023-12-20T13:40:09;24.88;;;9.15;;
28762;SDS011;15918;51.270;6.522;2023-12-20T13:42:35;19.00;;;8.45;;
28762;SDS011;15918;51.270;6.522;2023-12-20T13:45:01;21.73;;;8.60;;
28762;SDS011;15918;51.270;6.522;2023-12-20T13:47:26;22.25;;;9.45;;
28762;SDS011;15918;51.270;6.522;2023-12-20T13:49:52;21.63;;;8.50;;
28762;SDS011;15918;51.270;6.522;2023-12-20T13:52:17;23.42;;;8.38;;
28762;SDS011;15918;51.270;6.522;2023-12-20T13:54:43;20.55;;;7.80;;
28762;SDS011;15918;51.270;6.522;2023-12-20T13:57:09;20.90;;;7.88;;
28762;SDS011;15918;51.270;6.522;2023-12-20T13:59:34;13.20;;;7.18;;
28762;SDS011;15918;51.270;6.522;2023-12-20T14:02:00;17.30;;;6.97;;
28762;SDS011;15918;51.270;6.522;2023-12-20T14:04:27;16.83;;;7.53;;
28762;SDS011;15918;51.270;6.522;2023-12-20T14:06:53;20.23;;;7.03;;
28762;SDS011;15918;51.270;6.522;2023-12-20T14:09:19;22.10;;;7.72;;
28762;SDS011;15918;51.270;6.522;2023-12-20T14:11:44;18.13;;;7.10;;
28762;SDS011;15918;51.270;6.522;2023-12-20T14:14:10;20.38;;;7.82;;
28762;SDS011;15918;51.270;6.522;2023-12-20T14:16:36;18.52;;;7.47;;
28762;SDS011;15918;51.270;6.522;2023-12-20T14:19:03;21.13;;;8.07;;
28762;SDS011;15918;51.270;6.522;2023-12-20T14:21:28;21.75;;;7.68;;
28762;SDS011;15918;51.270;6.522;2023-12-20T14:23:54;21.60;;;7.72;;
28762;SDS011;15918;51.270;6.522;2023-12-20T14:26:20;16.85;;;6.97;;